Time,TemperatureF,DewpointF,PressureIn,WindDirection,WindDirectionDegrees,WindSpeedMPH,WindSpeedGustMPH,Humidity,HourlyPrecipIn,Conditions,Clouds,dailyrainin,SoftwareType,DateUTC
2013-07-29 00:02:00,74.0,49.0,27.76,NW,309,10.0,19.0,41,0.00,,,0.00,,2013-07-29 07:02:00,
2013-07-29 00:11:00,74.0,49.0,27.76,NW,309,10.0,19.0,41,0.00,,,0.00,,2013-07-29 07:11:00,
2013-07-29 00:22:00,74.0,48.0,27.76,NW,311,9.0,18.0,40,0.00,,,0.00,,2013-07-29 07:22:00,
2013-07-29 00:33:00,73.0,49.0,27.76,West,267,10.0,23.0,43,0.00,,,0.00,,2013-07-29 07:33:00,
2013-07-29 00:43:00,73.0,50.0,27.77,WNW,293,11.0,15.0,44,0.00,,,0.00,,2013-07-29 07:43:00,
2013-07-29 00:53:00,73.0,50.0,27.77,WNW,293,11.0,15.0,44,0.00,,,0.00,,2013-07-29 07:53:00,
2013-07-29 01:02:00,72.0,50.0,27.77,WNW,303,12.0,20.0,46,0.00,,,0.00,,2013-07-29 08:02:00,
2013-07-29 01:11:00,72.0,50.0,27.77,WNW,303,12.0,20.0,46,0.00,,,0.00,,2013-07-29 08:11:00,
2013-07-29 01:22:00,72.0,51.0,27.77,West,278,10.0,18.0,47,0.00,,,0.00,,2013-07-29 08:22:00,
2013-07-29 01:52:00,71.0,50.0,27.78,NW,314,11.0,19.0,48,0.00,,,0.00,,2013-07-29 08:52:00,
2013-07-29 02:02:00,71.0,51.0,27.78,NW,304,10.0,19.0,49,0.00,,,0.00,,2013-07-29 09:02:00,
2013-07-29 02:12:00,71.0,51.0,27.78,WNW,302,9.0,15.0,50,0.00,,,0.00,,2013-07-29 09:12:00,
2013-07-29 02:22:00,71.0,51.0,27.78,WNW,302,9.0,15.0,50,0.00,,,0.00,,2013-07-29 09:22:00,
2013-07-29 02:33:00,71.0,51.0,27.78,West,264,9.0,17.0,50,0.00,,,0.00,,2013-07-29 09:33:00,
2013-07-29 02:43:00,70.0,51.0,27.78,WNW,285,8.0,17.0,51,0.00,,,0.00,,2013-07-29 09:43:00,
2013-07-29 02:53:00,70.0,51.0,27.78,WNW,285,8.0,17.0,51,0.00,,,0.00,,2013-07-29 09:53:00,
2013-07-29 03:02:00,70.0,51.0,27.79,NW,305,8.0,16.0,51,0.00,,,0.00,,2013-07-29 10:02:00,
2013-07-29 03:12:00,70.0,51.0,27.79,NW,305,8.0,16.0,51,0.00,,,0.00,,2013-07-29 10:12:00,
2013-07-29 03:22:00,69.0,51.0,27.79,NW,318,6.0,15.0,52,0.00,,,0.00,,2013-07-29 10:22:00,
2013-07-29 03:33:00,68.0,51.0,27.79,SW,214,10.0,16.0,54,0.00,,,0.00,,2013-07-29 10:33:00,
2013-07-29 03:43:00,67.0,51.0,27.79,WNW,302,11.0,17.0,56,0.00,,,0.00,,2013-07-29 10:43:00,
2013-07-29 03:53:00,67.0,51.0,27.79,WNW,302,11.0,17.0,56,0.00,,,0.00,,2013-07-29 10:53:00,
2013-07-29 04:12:00,66.0,50.0,27.79,WNW,297,9.0,20.0,57,0.00,,,0.00,,2013-07-29 11:12:00,
2013-07-29 04:22:00,66.0,50.0,27.79,NW,319,10.0,19.0,57,0.00,,,0.00,,2013-07-29 11:22:00,
2013-07-29 04:34:00,66.0,50.0,27.79,WNW,293,10.0,18.0,57,0.00,,,0.00,,2013-07-29 11:34:00,
2013-07-29 04:43:00,65.0,50.0,27.80,NW,314,10.0,17.0,58,0.00,,,0.00,,2013-07-29 11:43:00,
2013-07-29 05:12:00,64.0,49.0,27.81,NNW,343,12.0,20.0,59,0.00,,,0.00,,2013-07-29 12:12:00,
2013-07-29 05:34:00,64.0,50.0,27.81,NW,312,9.0,15.0,60,0.00,,,0.00,,2013-07-29 12:34:00,
2013-07-29 05:44:00,64.0,50.0,27.81,WNW,288,10.0,17.0,60,0.00,,,0.00,,2013-07-29 12:44:00,
2013-07-29 05:53:00,64.0,50.0,27.81,WNW,288,10.0,17.0,60,0.00,,,0.00,,2013-07-29 12:53:00,
2013-07-29 06:22:00,64.0,50.0,27.82,NW,321,6.0,12.0,60,0.00,,,0.00,,2013-07-29 13:22:00,
2013-07-29 06:34:00,64.0,50.0,27.82,WNW,288,7.0,13.0,61,0.00,,,0.00,,2013-07-29 13:34:00,
2013-07-29 06:53:00,64.0,50.0,27.82,WNW,297,7.0,12.0,60,0.00,,,0.00,,2013-07-29 13:53:00,
2013-07-29 07:03:00,64.0,50.0,27.83,NW,306,6.0,11.0,61,0.00,,,0.00,,2013-07-29 14:03:00,
2013-07-29 07:23:00,64.0,50.0,27.83,WNW,285,5.0,19.0,61,0.00,,,0.00,,2013-07-29 14:23:00,
2013-07-29 07:33:00,65.0,51.0,27.83,WNW,302,4.0,10.0,60,0.00,,,0.00,,2013-07-29 14:33:00,
2013-07-29 07:42:00,65.0,51.0,27.83,NW,309,7.0,14.0,60,0.00,,,0.00,,2013-07-29 14:42:00,
2013-07-29 07:53:00,65.0,51.0,27.83,NW,309,7.0,14.0,60,0.00,,,0.00,,2013-07-29 14:53:00,
2013-07-29 08:03:00,66.0,52.0,27.83,WNW,290,4.0,12.0,60,0.00,,,0.00,,2013-07-29 15:03:00,
2013-07-29 08:12:00,66.0,52.0,27.83,WNW,290,4.0,12.0,60,0.00,,,0.00,,2013-07-29 15:12:00,
2013-07-29 08:22:00,66.0,51.0,27.83,NNW,332,6.0,13.0,59,0.00,,,0.00,,2013-07-29 15:22:00,
2013-07-29 08:35:00,67.0,53.0,27.83,NW,309,6.0,13.0,60,0.00,,,0.00,,2013-07-29 15:35:00,
2013-07-29 08:44:00,67.0,52.0,27.84,NW,321,6.0,16.0,59,0.00,,,0.00,,2013-07-29 15:44:00,
2013-07-29 08:53:00,67.0,52.0,27.84,NW,321,6.0,16.0,59,0.00,,,0.00,,2013-07-29 15:53:00,
2013-07-29 09:03:00,68.0,53.0,27.83,WNW,300,6.0,13.0,58,0.00,,,0.00,,2013-07-29 16:03:00,
2013-07-29 09:22:00,69.0,53.0,27.83,NNW,347,6.0,11.0,57,0.00,,,0.00,,2013-07-29 16:22:00,
2013-07-29 09:35:00,70.0,54.0,27.83,WNW,288,5.0,11.0,56,0.00,,,0.00,,2013-07-29 16:35:00,
2013-07-29 09:54:00,71.0,54.0,27.83,WNW,301,4.0,12.0,54,0.00,,,0.00,,2013-07-29 16:54:00,
2013-07-29 10:12:00,73.0,54.0,27.83,NNW,331,4.0,7.0,52,0.00,,,0.00,,2013-07-29 17:12:00,
2013-07-29 10:22:00,74.0,54.0,27.82,NNW,341,2.0,5.0,50,0.00,,,0.00,,2013-07-29 17:22:00,
2013-07-29 10:35:00,75.0,54.0,27.82,NNW,340,1.0,5.0,48,0.00,,,0.00,,2013-07-29 17:35:00,
2013-07-29 10:43:00,75.0,54.0,27.82,NNW,340,1.0,5.0,48,0.00,,,0.00,,2013-07-29 17:43:00,
2013-07-29 11:03:00,75.0,53.0,27.81,NW,323,2.0,4.0,47,0.00,,,0.00,,2013-07-29 18:03:00,
2013-07-29 11:22:00,78.0,56.0,27.81,East,93,1.0,3.0,46,0.00,,,0.00,,2013-07-29 18:22:00,
2013-07-29 11:33:00,79.0,54.0,27.81,ESE,108,0.0,3.0,42,0.00,,,0.00,,2013-07-29 18:33:00,
2013-07-29 12:02:00,81.0,56.0,27.80,ESE,115,0.0,2.0,42,0.00,,,0.00,,2013-07-29 19:02:00,
2013-07-29 12:12:00,81.0,56.0,27.80,ESE,115,0.0,2.0,42,0.00,,,0.00,,2013-07-29 19:12:00,
2013-07-29 12:22:00,82.0,52.0,27.79,ESE,120,0.0,2.0,36,0.00,,,0.00,,2013-07-29 19:22:00,
2013-07-29 12:44:00,84.0,51.0,27.79,ESE,111,0.0,3.0,32,0.00,,,0.00,,2013-07-29 19:44:00,
2013-07-29 12:53:00,84.0,51.0,27.79,ESE,111,0.0,3.0,32,0.00,,,0.00,,2013-07-29 19:53:00,
2013-07-29 13:03:00,85.0,49.0,27.78,ENE,78,0.0,1.0,29,0.00,,,0.00,,2013-07-29 20:03:00,
2013-07-29 13:22:00,86.0,48.0,27.78,NNW,333,1.0,2.0,27,0.00,,,0.00,,2013-07-29 20:22:00,
2013-07-29 13:33:00,88.0,50.0,27.78,ENE,68,0.0,2.0,27,0.00,,,0.00,,2013-07-29 20:33:00,
2013-07-29 13:44:00,88.0,49.0,27.77,East,84,1.0,2.0,26,0.00,,,0.00,,2013-07-29 20:44:00,
2013-07-29 14:12:00,88.0,48.0,27.77,NW,309,2.0,3.0,25,0.00,,,0.00,,2013-07-29 21:12:00,
2013-07-29 14:22:00,90.0,51.0,27.76,ESE,111,0.0,3.0,27,0.00,,,0.00,,2013-07-29 21:22:00,
2013-07-29 15:02:00,92.0,50.0,27.76,NE,56,0.0,3.0,24,0.00,,,0.00,,2013-07-29 22:02:00,
2013-07-29 15:22:00,91.0,48.0,27.75,SSE,160,0.0,2.0,23,0.00,,,0.00,,2013-07-29 22:22:00,
2013-07-29 15:43:00,93.0,48.0,27.81,SSE,147,1.0,4.0,22,0.00,,,0.00,,2013-07-29 22:43:00,
2013-07-29 15:54:00,93.0,47.0,27.74,SE,136,0.0,3.0,21,0.00,,,0.00,,2013-07-29 22:54:00,
2013-07-29 16:11:00,92.0,44.0,27.74,WSW,237,0.0,4.0,19,0.00,,,0.00,,2013-07-29 23:11:00,
2013-07-29 16:33:00,93.0,43.0,27.74,North,352,1.0,3.0,18,0.00,,,0.00,,2013-07-29 23:33:00,
2013-07-29 17:12:00,94.0,49.0,27.73,SE,135,0.0,2.0,22,0.00,,,0.00,,2013-07-30 00:12:00,
2013-07-29 18:22:00,93.0,50.0,27.72,SSE,163,0.0,1.0,23,0.00,,,0.00,,2013-07-30 01:22:00,
2013-07-29 18:33:00,93.0,50.0,27.72,SSE,163,0.0,1.0,23,0.00,,,0.00,,2013-07-30 01:33:00,
2013-07-29 18:43:00,91.0,49.0,27.72,SSE,160,0.0,1.0,24,0.00,,,0.00,,2013-07-30 01:43:00,
2013-07-29 19:02:00,84.0,48.0,27.72,South,172,0.0,1.0,29,0.00,,,0.00,,2013-07-30 02:02:00,
2013-07-29 19:22:00,82.0,49.0,27.72,South,172,0.0,1.0,32,0.00,,,0.00,,2013-07-30 02:22:00,
2013-07-29 19:43:00,82.0,49.0,27.73,South,172,0.0,1.0,32,0.00,,,0.00,,2013-07-30 02:43:00,
2013-07-29 19:55:00,82.0,50.0,27.73,SE,141,0.0,2.0,33,0.00,,,0.00,,2013-07-30 02:55:00,
2013-07-29 20:12:00,81.0,50.0,27.73,SE,141,0.0,1.0,34,0.00,,,0.00,,2013-07-30 03:12:00,
2013-07-29 20:33:00,80.0,50.0,27.74,SE,143,0.0,1.0,35,0.00,,,0.00,,2013-07-30 03:33:00,
2013-07-29 20:43:00,80.0,47.0,27.74,SE,139,0.0,1.0,32,0.00,,,0.00,,2013-07-30 03:43:00,
2013-07-29 20:52:00,80.0,49.0,27.75,SSE,158,0.0,1.0,34,0.00,,,0.00,,2013-07-30 03:52:00,
2013-07-29 21:02:00,79.0,48.0,27.75,SSE,158,0.0,1.0,34,0.00,,,0.00,,2013-07-30 04:02:00,
2013-07-29 21:32:00,80.0,47.0,27.76,West,266,4.0,7.0,32,0.00,,,0.00,,2013-07-30 04:32:00,
2013-07-29 21:43:00,81.0,48.0,27.76,WNW,295,1.0,5.0,32,0.00,,,0.00,,2013-07-30 04:43:00,
2013-07-29 21:53:00,80.0,48.0,27.77,NNW,334,0.0,2.0,33,0.00,,,0.00,,2013-07-30 04:53:00,
2013-07-29 22:02:00,81.0,48.0,27.78,WSW,255,4.0,10.0,32,0.00,,,0.00,,2013-07-30 05:02:00,
2013-07-29 22:11:00,81.0,48.0,27.78,WSW,255,4.0,10.0,32,0.00,,,0.00,,2013-07-30 05:11:00,
2013-07-29 22:22:00,81.0,50.0,27.78,NW,311,4.0,9.0,34,0.00,,,0.00,,2013-07-30 05:22:00,
2013-07-29 22:32:00,81.0,50.0,27.78,NW,311,4.0,9.0,34,0.00,,,0.00,,2013-07-30 05:32:00,
2013-07-29 22:45:00,81.0,50.0,27.78,NW,314,8.0,14.0,34,0.00,,,0.00,,2013-07-30 05:45:00,
2013-07-29 23:01:00,81.0,51.0,27.78,West,276,10.0,17.0,35,0.00,,,0.00,,2013-07-30 06:01:00,
2013-07-29 23:22:00,79.0,50.0,27.80,NW,321,4.0,13.0,37,0.00,,,0.00,,2013-07-30 06:22:00,
2013-07-29 23:32:00,79.0,50.0,27.80,NW,321,4.0,13.0,37,0.00,,,0.00,,2013-07-30 06:32:00,
2013-07-29 23:43:00,77.0,51.0,27.81,WNW,298,4.0,13.0,41,0.00,,,0.00,,2013-07-30 06:43:00,
2013-07-29 23:52:00,76.0,51.0,27.81,NW,321,4.0,10.0,41,0.00,,,0.00,,2013-07-30 06:52:00,